Time;durP1;ratioP1;P1;durP2;ratioP2;P2;SDS_P1;SDS_P2;PMS_P1;PMS_P2;Temp;Humidity;BMP_temperature;BMP_pressure;BME280_temperature;BME280_humidity;BME280_pressure;Samples;Min_cycle;Max_cycle;Signal;HPM_P1;HPM_P2
2021/05/21 00:00:23;;;;;;;5.83;3.33;;;;;;;11.76;80.42;100058.38;125045;1102;104293;-79
2021/05/21 00:03:14;;;;;;;4.83;3.10;;;;;;;11.76;80.26;100058.38;125319;1102;105449;-79
2021/05/21 00:05:44;;;;;;;4.67;2.77;;;;;;;11.75;80.46;100061.88;125104;1102;104190;-80
2021/05/21 00:08:15;;;;;;;4.50;2.90;;;;;;;11.75;80.81;100059.25;125328;1102;104229;-80
2021/05/21 00:10:48;;;;;;;3.93;3.03;;;;;;;11.77;80.38;100060.16;125300;1102;104680;-79
2021/05/21 00:13:21;;;;;;;3.70;2.65;;;;;;;11.77;80.37;100062.79;125383;1099;104144;-79
2021/05/21 00:15:51;;;;;;;3.53;2.40;;;;;;;11.75;80.29;100061.88;125366;1099;104146;-79
2021/05/21 00:18:25;;;;;;;3.00;2.60;;;;;;;11.74;80.37;100067.98;125404;1102;104296;-78
2021/05/21 00:20:57;;;;;;;5.33;2.75;;;;;;;11.73;80.40;100074.07;125419;1102;104152;-79
2021/05/21 00:23:26;;;;;;;6.77;2.73;;;;;;;11.74;80.45;100060.09;125599;1099;104207;-79
2021/05/21 00:25:56;;;;;;;3.93;2.83;;;;;;;11.75;80.39;100067.14;125373;1102;104290;-78
2021/05/21 00:28:25;;;;;;;3.97;2.67;;;;;;;11.78;80.47;100072.47;125373;1101;104248;-78
2021/05/21 00:30:59;;;;;;;5.57;2.70;;;;;;;11.78;80.66;100066.30;126301;1099;104204;-78
2021/05/21 00:33:38;;;;;;;4.08;2.70;;;;;;;11.77;80.72;100067.17;126215;1099;104139;-78
2021/05/21 00:36:08;;;;;;;6.40;3.30;;;;;;;11.76;80.71;100061.00;126190;1099;104434;-78
2021/05/21 00:38:44;;;;;;;4.83;3.20;;;;;;;11.74;81.03;100061.84;125214;1099;106945;-79
2021/05/21 00:41:15;;;;;;;;;;;;;;;11.71;80.89;100060.02;125306;1099;104300;-77
2021/05/21 00:43:48;;;;;;;7.00;3.40;;;;;;;11.68;80.69;100059.94;125321;1099;104146;-78
2021/05/21 00:46:27;;;;;;;7.67;3.20;;;;;;;11.69;80.79;100057.35;125314;1099;104277;-78
2021/05/21 00:49:04;;;;;;;5.53;3.00;;;;;;;11.69;80.67;100057.35;126133;1099;118272;-78
2021/05/21 00:51:42;;;;;;;4.60;3.07;;;;;;;11.71;80.86;100060.02;126224;1099;104178;-79
2021/05/21 00:54:16;;;;;;;5.53;3.00;;;;;;;11.69;80.74;100052.09;126301;1099;104198;-78
2021/05/21 00:56:51;;;;;;;5.23;3.03;;;;;;;11.70;80.88;100060.86;125419;1099;104329;-79
2021/05/21 00:59:34;;;;;;;4.57;2.87;;;;;;;11.70;81.02;100058.23;125332;1099;106811;-78
2021/05/21 01:02:06;;;;;;;3.83;2.90;;;;;;;11.69;80.82;100059.98;125392;1099;104181;-78
2021/05/21 01:04:36;;;;;;;3.63;2.97;;;;;;;11.69;80.76;100057.35;125519;1099;104178;-79
2021/05/21 01:07:08;;;;;;;7.63;3.43;;;;;;;11.72;81.24;100056.55;126328;1098;102041;-79
2021/05/21 01:09:37;;;;;;;4.63;3.00;;;;;;;11.73;81.10;100057.42;126324;1099;109526;-80
2021/05/21 01:12:09;;;;;;;3.43;2.70;;;;;;;11.75;80.99;100058.34;126321;1099;104237;-79
2021/05/21 01:14:50;;;;;;;5.43;2.90;;;;;;;11.75;80.88;100061.88;126326;1099;104266;-79
2021/05/21 01:17:23;;;;;;;5.00;2.80;;;;;;;11.74;80.96;100057.46;126272;1099;104178;-79
2021/05/21 01:19:54;;;;;;;6.50;3.17;;;;;;;11.70;80.91;100058.23;126312;1099;104134;-79
2021/05/21 01:22:24;;;;;;;3.80;3.10;;;;;;;11.65;81.20;100054.61;126365;1098;104149;-79
2021/05/21 01:24:57;;;;;;;5.90;3.17;;;;;;;11.62;80.97;100055.41;126263;1098;104140;-78
2021/05/21 01:27:29;;;;;;;5.28;3.27;;;;;;;11.60;81.10;100066.77;126295;1099;104159;-79
2021/05/21 01:30:00;;;;;;;6.13;3.13;;;;;;;11.59;81.12;100062.34;126198;1099;107774;-78
2021/05/21 01:32:31;;;;;;;7.60;3.20;;;;;;;11.61;81.08;100060.63;126350;1099;104172;-78
2021/05/21 01:35:06;;;;;;;4.73;2.53;;;;;;;11.60;81.43;100062.38;126326;1099;104213;-79
2021/05/21 01:37:43;;;;;;;5.63;2.97;;;;;;;11.60;81.55;100065.02;126350;1099;104130;-79
2021/05/21 01:40:17;;;;;;;;;;;;;;;11.60;81.27;100065.02;126317;1099;118604;-79
2021/05/21 01:42:52;;;;;;;3.77;2.92;;;;;;;11.60;81.53;100069.39;126211;1099;104139;-79
2021/05/21 01:45:26;;;;;;;8.50;4.43;;;;;;;11.58;81.37;100066.72;125358;1102;104653;-79
2021/05/21 01:47:55;;;;;;;3.83;2.90;;;;;;;11.58;81.26;100069.35;125273;1102;104412;-78
2021/05/21 01:50:26;;;;;;;6.23;2.90;;;;;;;11.60;81.46;100070.27;125320;1102;104181;-78
2021/05/21 01:52:55;;;;;;;5.60;3.17;;;;;;;11.60;81.16;100075.52;125387;1102;104342;-78
2021/05/21 01:55:25;;;;;;;4.97;3.03;;;;;;;11.63;81.50;100074.72;125309;1099;104489;-80
2021/05/21 01:57:56;;;;;;;7.93;3.30;;;;;;;11.65;81.26;100075.64;125231;1099;104152;-79
2021/05/21 02:00:26;;;;;;;5.60;2.90;;;;;;;11.67;81.58;100073.92;125244;1102;104204;-79
2021/05/21 02:02:55;;;;;;;4.30;2.80;;;;;;;11.70;81.58;100079.25;125249;1102;104328;-79
2021/05/21 02:05:29;;;;;;;4.37;3.03;;;;;;;11.67;81.35;100073.92;125303;1102;101987;-79
2021/05/21 02:08:10;;;;;;;4.53;3.10;;;;;;;11.66;81.43;100085.31;125295;1100;101798;-79
2021/05/21 02:10:39;;;;;;;6.47;3.07;;;;;;;11.66;81.66;100074.80;125247;1102;104270;-79
2021/05/21 02:13:20;;;;;;;5.03;3.10;;;;;;;11.68;81.67;100073.08;125297;1099;104197;-80
2021/05/21 02:15:49;;;;;;;5.67;3.10;;;;;;;11.69;81.49;100081.00;125274;1101;104146;-76
2021/05/21 02:18:25;;;;;;;6.53;3.30;;;;;;;11.69;81.42;100088.02;126250;1099;105387;-78
2021/05/21 02:20:56;;;;;;;5.80;3.27;;;;;;;11.68;81.39;100078.34;126234;1099;104146;-79
2021/05/21 02:23:26;;;;;;;4.57;3.03;;;;;;;11.68;81.69;100083.59;126274;1099;104264;-80
2021/05/21 02:25:56;;;;;;;5.83;3.30;;;;;;;11.67;81.56;100081.81;126281;1099;104232;-79
2021/05/21 02:28:28;;;;;;;4.00;2.87;;;;;;;11.66;81.60;100082.68;126333;1099;104236;-80
2021/05/21 02:31:00;;;;;;;5.10;3.00;;;;;;;11.66;81.46;100085.31;126206;1099;104312;-79
2021/05/21 02:33:29;;;;;;;4.97;2.90;;;;;;;11.68;81.72;100086.22;126251;1099;104172;-79
2021/05/21 02:35:59;;;;;;;4.00;2.90;;;;;;;11.71;81.62;100086.30;126254;1099;104271;-80
2021/05/21 02:38:30;;;;;;;5.77;3.03;;;;;;;11.71;81.50;100090.67;126340;1099;105244;-80
2021/05/21 02:40:59;;;;;;;6.20;3.20;;;;;;;11.71;81.55;100090.67;126284;1099;104283;-79
2021/05/21 02:43:29;;;;;;;6.23;3.03;;;;;;;11.70;81.64;100095.02;126318;1099;104383;-79
2021/05/21 02:45:59;;;;;;;4.93;2.97;;;;;;;11.68;81.73;100101.99;126273;1099;104322;-79
2021/05/21 02:48:31;;;;;;;7.20;3.13;;;;;;;11.66;81.63;100101.95;126215;1099;104238;-79
2021/05/21 02:51:03;;;;;;;4.23;2.97;;;;;;;11.66;81.69;100101.08;126326;1099;102067;-79
2021/05/21 02:53:34;;;;;;;5.20;3.20;;;;;;;11.64;81.88;100110.64;126365;1099;104153;-79
2021/05/21 02:56:03;;;;;;;4.93;3.00;;;;;;;11.64;81.84;100113.27;126360;1099;104073;-80
2021/05/21 02:58:36;;;;;;;5.67;3.20;;;;;;;11.62;81.85;100113.23;126312;1099;104272;-79
2021/05/21 03:01:05;;;;;;;6.60;3.20;;;;;;;11.63;81.84;100120.27;126298;1099;104178;-80
2021/05/21 03:03:37;;;;;;;5.60;3.27;;;;;;;11.63;81.70;100133.41;126391;1098;104143;-80
2021/05/21 03:06:09;;;;;;;4.63;2.87;;;;;;;11.65;81.97;100134.33;125503;1099;104396;-80
2021/05/21 03:08:42;;;;;;;4.27;3.30;;;;;;;11.65;81.97;100130.83;125518;1099;104401;-80
2021/05/21 03:11:11;;;;;;;5.53;3.03;;;;;;;11.64;81.81;100137.83;125799;1099;104175;-80
2021/05/21 03:13:40;;;;;;;3.87;2.87;;;;;;;11.68;81.89;100138.79;126201;1099;104424;-79
2021/05/21 03:16:10;;;;;;;5.47;3.00;;;;;;;11.68;81.90;100136.16;126266;1099;104239;-79
2021/05/21 03:18:43;;;;;;;7.60;3.40;;;;;;;11.69;81.94;100145.83;126296;1099;104252;-79
2021/05/21 03:21:13;;;;;;;6.97;3.30;;;;;;;11.69;81.98;100145.83;126120;1099;104162;-80
2021/05/21 03:23:47;;;;;;;4.27;2.97;;;;;;;11.70;81.90;100139.70;125411;1099;104405;-79
2021/05/21 03:26:17;;;;;;;5.30;3.40;;;;;;;11.71;82.15;100152.01;126128;1099;104281;-79
2021/05/21 03:28:46;;;;;;;3.80;3.07;;;;;;;11.72;82.17;100151.17;125420;1099;104277;-80
2021/05/21 03:31:26;;;;;;;5.67;2.90;;;;;;;11.74;82.15;100157.34;125216;1099;104281;-81
2021/05/21 03:34:27;;;;;;;4.93;3.00;;;;;;;11.75;81.97;100156.50;125337;1099;104207;-79
2021/05/21 03:36:57;;;;;;;4.27;2.93;;;;;;;11.79;82.22;100157.46;125482;1099;104531;-79
2021/05/21 03:39:28;;;;;;;5.70;3.00;;;;;;;11.81;82.22;100168.89;126199;1099;102120;-79
2021/05/21 03:42:01;;;;;;;6.07;3.40;;;;;;;11.82;82.09;100166.30;125646;1099;104153;-79
2021/05/21 03:44:41;;;;;;;5.13;3.27;;;;;;;11.86;82.26;100176.06;125869;1099;103076;-79
2021/05/21 03:47:15;;;;;;;6.80;3.27;;;;;;;11.90;82.20;100178.77;126193;1099;104342;-78
2021/05/21 03:49:44;;;;;;;;;;;;;;;11.94;82.02;100181.55;126219;1099;104344;-78
2021/05/21 03:52:20;;;;;;;4.43;3.40;;;;;;;11.96;82.10;100192.98;125775;1099;101822;-79
2021/05/21 03:54:53;;;;;;;6.53;3.07;;;;;;;11.99;81.92;100197.44;126523;1099;104137;-79
2021/05/21 03:57:27;;;;;;;5.10;3.23;;;;;;;12.03;82.20;100196.67;125667;1102;102561;-79
2021/05/21 04:00:06;;;;;;;5.60;2.97;;;;;;;12.07;82.16;100201.14;125727;1099;101906;-79
2021/05/21 04:02:37;;;;;;;6.80;3.40;;;;;;;12.08;82.19;100204.68;126475;1099;104192;-79
2021/05/21 04:05:07;;;;;;;6.00;3.13;;;;;;;12.09;82.18;100211.70;126488;1099;104165;-79
2021/05/21 04:07:40;;;;;;;3.53;3.00;;;;;;;12.10;82.19;100208.23;126283;1098;103435;-79
2021/05/21 04:10:10;;;;;;;6.57;3.47;;;;;;;12.09;82.21;100207.34;126053;1099;104168;-78
2021/05/21 04:12:43;;;;;;;5.70;3.27;;;;;;;12.11;82.18;100213.52;126041;1099;104147;-78
2021/05/21 04:15:15;;;;;;;4.63;3.33;;;;;;;12.12;82.20;100217.91;125974;1099;104136;-79
2021/05/21 04:17:45;;;;;;;6.23;3.40;;;;;;;12.13;82.57;100226.72;125895;1099;104271;-79
2021/05/21 04:20:16;;;;;;;4.90;3.00;;;;;;;12.14;82.22;100218.86;125945;1099;104140;-80
2021/05/21 04:22:50;;;;;;;8.70;3.30;;;;;;;12.17;82.50;100226.83;126137;1099;104140;-79
2021/05/21 04:25:20;;;;;;;8.53;4.00;;;;;;;12.22;82.37;100233.08;126234;1098;104190;-80
2021/05/21 04:27:49;;;;;;;8.80;3.80;;;;;;;12.25;82.23;100227.02;126065;1099;104146;-78
2021/05/21 04:30:24;;;;;;;9.20;3.90;;;;;;;12.28;82.19;100231.44;126237;1099;104177;-79
2021/05/21 04:32:54;;;;;;;9.37;4.40;;;;;;;12.31;82.54;100234.15;126146;1099;102414;-78
2021/05/21 04:35:28;;;;;;;9.20;4.10;;;;;;;12.35;82.00;100239.53;126077;1099;105570;-78
2021/05/21 04:38:04;;;;;;;8.03;4.13;;;;;;;12.37;82.27;100244.83;126169;1099;104276;-79
2021/05/21 04:40:40;;;;;;;10.27;4.70;;;;;;;12.36;82.18;100246.58;125480;1099;104325;-78
2021/05/21 04:43:23;;;;;;;9.27;4.30;;;;;;;12.38;82.28;100249.25;126136;1099;104027;-79
2021/05/21 04:45:55;;;;;;;11.00;4.50;;;;;;;12.39;82.35;100251.91;125302;1099;104175;-77
2021/05/21 04:48:29;;;;;;;8.47;4.20;;;;;;;12.42;82.49;100251.11;126008;1099;104149;-76
2021/05/21 04:50:59;;;;;;;10.43;4.57;;;;;;;12.44;82.37;100253.78;125372;1099;104247;-76
2021/05/21 04:53:30;;;;;;;7.57;4.10;;;;;;;12.49;82.33;100247.75;125754;1099;104929;-77
2021/05/21 04:56:00;;;;;;;7.13;3.67;;;;;;;12.52;82.27;100242.56;125227;1102;104191;-77
2021/05/21 04:58:29;;;;;;;11.27;4.17;;;;;;;12.57;82.51;100251.48;125256;1102;102304;-77
2021/05/21 05:01:03;;;;;;;8.27;4.13;;;;;;;12.63;82.59;100249.84;125214;1102;104182;-76
2021/05/21 05:03:37;;;;;;;11.50;4.33;;;;;;;12.68;82.54;100253.45;125141;1102;104244;-76
2021/05/21 05:06:11;;;;;;;7.13;3.80;;;;;;;12.75;82.55;100260.66;125159;1102;104284;-78
2021/05/21 05:08:41;;;;;;;6.80;3.60;;;;;;;12.78;82.25;100260.72;125165;1102;104264;-78
2021/05/21 05:11:14;;;;;;;6.63;4.10;;;;;;;12.82;82.35;100265.19;125147;1102;104425;-78
2021/05/21 05:13:45;;;;;;;7.70;3.97;;;;;;;12.89;82.46;100272.38;125127;1102;105729;-79
2021/05/21 05:16:16;;;;;;;6.80;3.97;;;;;;;13.02;82.68;100272.66;125150;1102;104602;-78
2021/05/21 05:18:55;;;;;;;7.67;4.10;;;;;;;13.12;82.60;100286.06;125028;1102;104697;-79
2021/05/21 05:21:26;;;;;;;10.53;4.30;;;;;;;13.23;82.22;100288.94;125183;1102;104262;-80
2021/05/21 05:24:02;;;;;;;9.17;3.87;;;;;;;13.33;81.83;100294.40;125086;1102;104335;-81
2021/05/21 05:26:36;;;;;;;5.43;3.90;;;;;;;13.39;82.25;100303.34;125095;1102;104197;-79
2021/05/21 05:29:08;;;;;;;7.97;4.40;;;;;;;13.55;81.83;100301.91;125044;1101;104350;-80
2021/05/21 05:31:48;;;;;;;7.87;4.33;;;;;;;13.69;82.69;100306.59;125045;1102;104261;-80
2021/05/21 05:34:30;;;;;;;7.70;3.87;;;;;;;13.77;81.73;100307.62;125063;1102;104143;-81
2021/05/21 05:37:04;;;;;;;9.17;4.27;;;;;;;13.83;82.07;100310.38;124985;1102;104182;-81
2021/05/21 05:39:42;;;;;;;9.23;4.73;;;;;;;13.89;82.09;100312.25;124997;1102;104236;-80
2021/05/21 05:42:15;;;;;;;9.40;4.17;;;;;;;13.98;82.28;100310.67;124989;1102;104424;-79
2021/05/21 05:44:51;;;;;;;8.37;4.30;;;;;;;14.05;82.45;100306.39;125167;1102;102240;-79
2021/05/21 05:47:21;;;;;;;7.30;4.00;;;;;;;14.11;81.77;100313.53;125000;1102;104159;-81
2021/05/21 05:50:02;;;;;;;7.50;4.40;;;;;;;14.17;81.46;100311.89;125003;1102;104660;-81
2021/05/21 05:52:35;;;;;;;6.33;3.67;;;;;;;14.27;81.35;100312.05;125104;1102;104153;-83
2021/05/21 05:55:07;;;;;;;8.83;3.80;;;;;;;14.40;81.26;100303.50;124953;1102;104304;-82
2021/05/21 05:57:39;;;;;;;;;;;;;;;14.52;81.87;100305.44;124942;1102;104236;-83
2021/05/21 06:00:10;;;;;;;7.20;4.03;;;;;;;14.55;81.33;100311.68;125045;1102;104220;-81
2021/05/21 06:02:40;;;;;;;6.97;3.53;;;;;;;14.60;82.01;100306.51;125023;1099;104197;-83
2021/05/21 06:05:12;;;;;;;12.17;4.10;;;;;;;14.70;81.77;100310.17;125072;1101;104169;-80
2021/05/21 06:07:42;;;;;;;7.17;3.60;;;;;;;14.78;82.19;100326.14;124983;1099;103017;-79
2021/05/21 06:10:14;;;;;;;8.13;4.10;;;;;;;14.81;81.54;100326.19;125086;1099;104178;-80
2021/05/21 06:12:57;;;;;;;4.40;3.40;;;;;;;14.84;81.92;100321.83;124991;1099;104379;-79
2021/05/21 06:15:29;;;;;;;8.97;3.93;;;;;;;14.85;81.47;100333.28;125071;1099;104360;-78
2021/05/21 06:18:01;;;;;;;6.80;3.83;;;;;;;14.91;81.78;100326.36;125653;1099;104242;-80
2021/05/21 06:20:34;;;;;;;8.77;3.77;;;;;;;15.05;82.16;100329.21;125557;1099;104262;-80
2021/05/21 06:23:08;;;;;;;6.60;3.10;;;;;;;15.13;81.20;100325.77;125802;1099;104181;-81
2021/05/21 06:25:54;;;;;;;;;;;;;;;15.15;81.06;100326.70;125532;1099;104168;-78
2021/05/21 06:28:26;;;;;;;4.67;2.67;;;;;;;15.24;81.17;100325.06;125675;1099;104236;-79
2021/05/21 06:30:56;;;;;;;6.33;3.10;;;;;;;15.32;81.19;100322.53;125600;1099;104143;-79
2021/05/21 06:33:28;;;;;;;5.70;2.80;;;;;;;15.35;81.52;100316.38;125539;1099;104265;-79
2021/05/21 06:35:59;;;;;;;6.27;2.97;;;;;;;15.43;80.66;100318.27;125665;1099;104229;-79
2021/05/21 06:38:39;;;;;;;5.47;2.70;;;;;;;15.56;80.76;100318.42;125965;1099;104142;-79
2021/05/21 06:41:14;;;;;;;4.70;2.73;;;;;;;15.69;80.18;100328.30;125779;1099;104152;-79
2021/05/21 06:43:45;;;;;;;4.53;2.63;;;;;;;15.75;80.84;100320.44;125808;1099;104172;-81
2021/05/21 06:46:26;;;;;;;7.63;2.70;;;;;;;15.89;81.13;100317.07;125817;1099;104172;-78
2021/05/21 06:48:59;;;;;;;6.27;2.70;;;;;;;16.01;80.88;100317.20;125685;1099;104303;-79
2021/05/21 06:51:30;;;;;;;4.25;2.37;;;;;;;16.10;79.57;100338.48;125691;1099;104274;-77
2021/05/21 06:54:00;;;;;;;4.10;2.40;;;;;;;16.07;79.61;100332.27;125726;1099;104233;-79
2021/05/21 06:56:30;;;;;;;6.63;3.17;;;;;;;16.15;80.11;100336.75;124939;1099;104424;-77
2021/05/21 06:59:02;;;;;;;7.60;3.20;;;;;;;16.23;79.89;100338.61;124948;1099;104312;-79
2021/05/21 07:01:33;;;;;;;6.50;3.60;;;;;;;16.27;79.65;100338.66;125358;1099;104376;-78
2021/05/21 07:04:05;;;;;;;7.03;3.13;;;;;;;16.33;80.05;100340.45;124950;1099;104316;-79
2021/05/21 07:06:40;;;;;;;14.00;4.70;;;;;;;16.33;79.59;100343.10;124940;1102;104390;-79
2021/05/21 07:09:16;;;;;;;6.37;2.98;;;;;;;16.42;80.29;100345.84;124963;1099;104239;-80
2021/05/21 07:11:56;;;;;;;10.60;3.10;;;;;;;16.56;79.76;100353.03;124985;1102;104313;-80
2021/05/21 07:14:31;;;;;;;10.00;3.83;;;;;;;16.63;79.87;100344.28;125221;1100;104355;-79
2021/05/21 07:17:00;;;;;;;4.43;3.10;;;;;;;16.76;79.55;100346.13;125530;1099;104213;-79
2021/05/21 07:19:32;;;;;;;7.43;2.70;;;;;;;16.88;79.96;100351.56;125659;1098;104233;-79
2021/05/21 07:22:05;;;;;;;3.17;2.30;;;;;;;17.03;79.81;100342.84;124994;1102;104211;-79
2021/05/21 07:24:43;;;;;;;6.47;2.87;;;;;;;17.24;79.32;100350.03;124937;1099;104280;-79
2021/05/21 07:27:13;;;;;;;3.92;2.42;;;;;;;17.40;77.75;100353.66;125537;1099;104304;-80
2021/05/21 07:29:45;;;;;;;5.00;2.57;;;;;;;17.35;78.21;100359.83;125540;1099;104437;-77
2021/05/21 07:32:16;;;;;;;4.73;3.00;;;;;;;17.22;78.16;100361.53;124977;1102;104287;-78
2021/05/21 07:34:48;;;;;;;3.87;2.60;;;;;;;17.31;77.89;100371.28;125084;1102;104280;-82
2021/05/21 07:37:21;;;;;;;4.47;2.67;;;;;;;17.46;78.28;100374.03;125081;1102;104840;-80
2021/05/21 07:39:51;;;;;;;5.40;2.72;;;;;;;17.66;78.01;100367.95;125012;1102;104156;-80
2021/05/21 07:42:23;;;;;;;5.57;2.50;;;;;;;17.74;77.73;100371.52;125067;1102;102649;-81
2021/05/21 07:44:57;;;;;;;4.20;2.50;;;;;;;17.74;77.71;100374.17;125086;1102;104309;-80
2021/05/21 07:47:28;;;;;;;6.30;2.77;;;;;;;17.66;77.07;100371.48;124972;1102;104434;-81
2021/05/21 07:50:02;;;;;;;5.87;2.90;;;;;;;17.56;77.14;100372.30;125132;1099;104408;-79
2021/05/21 07:52:35;;;;;;;8.33;3.10;;;;;;;17.53;76.88;100382.90;124855;1102;104412;-83
2021/05/21 07:55:15;;;;;;;7.23;2.73;;;;;;;17.54;76.59;100380.25;124830;1102;104172;-81
2021/05/21 07:57:51;;;;;;;5.53;2.90;;;;;;;17.65;76.55;100385.62;124592;1105;104272;-81
2021/05/21 08:00:45;;;;;;;7.93;2.80;;;;;;;17.78;76.22;100382.16;124568;1105;104338;-80
2021/05/21 08:03:21;;;;;;;4.50;2.70;;;;;;;17.94;76.40;100388.44;124711;1105;104345;-80
2021/05/21 08:05:52;;;;;;;7.17;2.80;;;;;;;18.00;75.85;100386.67;124945;1102;104176;-80
2021/05/21 08:08:24;;;;;;;5.37;2.87;;;;;;;18.10;75.98;100380.52;124918;1102;104621;-79
2021/05/21 08:10:56;;;;;;;7.17;2.73;;;;;;;18.17;74.29;100392.95;124957;1102;104335;-80
2021/05/21 08:13:37;;;;;;;6.37;2.67;;;;;;;18.22;75.50;100395.62;124983;1102;104166;-78
2021/05/21 08:16:21;;;;;;;2.80;2.50;;;;;;;18.43;74.98;100389.45;125091;1102;104317;-79
2021/05/21 08:18:51;;;;;;;6.37;2.50;;;;;;;18.59;74.76;100379.72;124899;1102;104171;-76
2021/05/21 08:21:25;;;;;;;2.87;2.20;;;;;;;18.81;75.27;100391.27;124805;1102;104309;-78
2021/05/21 08:23:58;;;;;;;2.40;2.20;;;;;;;19.01;73.45;100378.89;124924;1099;104345;-78
2021/05/21 08:26:31;;;;;;;7.50;2.60;;;;;;;18.95;73.30;100378.89;125005;1099;104251;-79
2021/05/21 08:29:06;;;;;;;2.87;2.40;;;;;;;18.96;73.22;100379.77;125249;1100;103033;-79
2021/05/21 08:31:40;;;;;;;3.43;2.03;;;;;;;19.21;74.25;100375.30;125867;1098;104171;-79
2021/05/21 08:34:11;;;;;;;6.77;2.57;;;;;;;19.36;73.88;100372.61;125099;1099;104729;-80
2021/05/21 08:36:42;;;;;;;3.17;2.27;;;;;;;19.38;73.52;100378.84;125074;1099;104200;-78
2021/05/21 08:39:14;;;;;;;3.27;2.40;;;;;;;19.32;73.65;100375.28;126683;1098;101779;-79
2021/05/21 08:41:56;;;;;;;7.87;2.20;;;;;;;19.25;73.53;100374.42;125880;1099;104252;-78
2021/05/21 08:44:33;;;;;;;6.93;2.40;;;;;;;19.16;73.29;100377.09;125731;1099;104277;-78
2021/05/21 08:47:05;;;;;;;5.72;2.40;;;;;;;19.01;72.37;100383.30;125634;1099;104262;-80
2021/05/21 08:49:36;;;;;;;7.93;2.33;;;;;;;18.84;72.46;100384.21;125696;1098;104242;-77
2021/05/21 08:52:16;;;;;;;7.90;2.77;;;;;;;18.72;72.22;100385.95;125898;1099;104341;-80
2021/05/21 08:54:49;;;;;;;3.00;2.70;;;;;;;18.53;71.76;100385.94;125851;1099;104217;-79
2021/05/21 08:57:21;;;;;;;4.37;2.83;;;;;;;18.56;72.49;100385.94;125867;1099;104316;-78
2021/05/21 09:00:00;;;;;;;3.67;2.50;;;;;;;18.75;71.65;100380.64;125837;1099;104130;-78
2021/05/21 09:02:35;;;;;;;6.67;2.50;;;;;;;18.87;71.93;100383.34;125749;1099;104245;-79
2021/05/21 09:05:10;;;;;;;4.63;2.33;;;;;;;18.83;71.55;100382.39;125767;1099;104236;-80
2021/05/21 09:07:43;;;;;;;5.50;2.40;;;;;;;18.67;71.61;100388.61;126218;1099;104194;-79
2021/05/21 09:10:19;;;;;;;4.50;2.73;;;;;;;18.52;71.88;100397.44;125735;1099;107330;-80
2021/05/21 09:12:53;;;;;;;5.33;2.40;;;;;;;18.36;71.64;100408.94;125765;1099;104172;-82
2021/05/21 09:15:32;;;;;;;5.23;2.60;;;;;;;18.21;71.71;100400.02;125817;1099;104274;-83
2021/05/21 09:18:08;;;;;;;5.63;2.70;;;;;;;18.08;71.47;100412.38;124977;1102;104286;-82
2021/05/21 09:21:03;;;;;;;6.57;2.83;;;;;;;17.91;71.48;100424.70;125069;1099;118747;-81
2021/05/21 09:23:41;;;;;;;3.93;2.50;;;;;;;17.60;71.45;100409.47;125147;1099;104216;-82
2021/05/21 09:26:13;;;;;;;5.97;2.77;;;;;;;17.43;71.98;100413.80;125035;1102;104414;-84
2021/05/21 09:28:44;;;;;;;6.50;2.30;;;;;;;17.43;71.74;100408.49;125100;1102;104162;-79
2021/05/21 09:31:22;;;;;;;6.73;2.97;;;;;;;17.44;71.83;100407.63;125088;1102;104208;-81
2021/05/21 09:33:59;;;;;;;7.20;3.20;;;;;;;17.48;71.88;100413.83;124915;1102;104156;-83
2021/05/21 09:36:32;;;;;;;16.47;3.20;;;;;;;17.42;71.85;100401.41;125004;1102;104220;-81
2021/05/21 09:39:08;;;;;;;3.57;2.70;;;;;;;17.41;71.45;100418.22;124981;1102;104271;-81
2021/05/21 09:41:53;;;;;;;4.33;2.60;;;;;;;17.34;71.39;100417.30;125075;1102;104203;-83
2021/05/21 09:44:27;;;;;;;6.43;2.87;;;;;;;17.30;71.98;100414.62;125138;1102;104184;-81
2021/05/21 09:47:02;;;;;;;7.33;3.30;;;;;;;17.24;71.74;100411.02;125009;1102;104482;-80
2021/05/21 09:49:37;;;;;;;8.33;2.77;;;;;;;17.29;71.88;100404.88;124959;1102;104255;-82
2021/05/21 09:52:10;;;;;;;5.60;3.03;;;;;;;17.35;71.66;100400.48;125089;1102;104383;-82
2021/05/21 09:54:57;;;;;;;7.47;2.73;;;;;;;17.40;72.18;100404.05;125021;1102;104382;-82
2021/05/21 09:57:49;;;;;;;5.67;2.73;;;;;;;17.54;71.30;100396.17;124947;1102;103090;-81
2021/05/21 10:00:23;;;;;;;8.47;2.90;;;;;;;17.66;71.26;100402.45;124922;1099;104223;-82
2021/05/21 10:02:58;;;;;;;4.83;2.73;;;;;;;17.84;71.01;100413.16;124906;1099;104652;-81
2021/05/21 10:08:22;;;;;;;4.13;2.47;;;;;;;18.52;71.70;100399.22;125225;1099;104306;-81
2021/05/21 10:11:04;;;;;;;3.50;2.23;;;;;;;18.76;71.71;100401.00;125681;1099;104192;-80
2021/05/21 10:13:42;;;;;;;4.63;2.63;;;;;;;18.78;70.33;100393.93;125616;1099;104226;-80
2021/05/21 10:16:28;;;;;;;5.80;2.43;;;;;;;18.81;69.90;100386.84;125596;1099;104281;-81
2021/05/21 10:19:03;;;;;;;4.17;2.40;;;;;;;18.88;69.82;100398.38;125542;1099;104287;-81
2021/05/21 10:21:47;;;;;;;4.23;2.43;;;;;;;18.82;68.90;100401.00;125542;1099;104278;-79
2021/05/21 10:24:19;;;;;;;3.63;2.57;;;;;;;18.84;69.47;100407.23;125606;1099;103469;-79
2021/05/21 10:26:57;;;;;;;6.37;2.67;;;;;;;18.90;69.19;100407.27;125572;1099;104195;-80
2021/05/21 10:29:32;;;;;;;7.73;3.20;;;;;;;18.88;69.30;100413.45;125731;1099;104409;-77
2021/05/21 10:32:19;;;;;;;4.67;2.47;;;;;;;18.78;68.73;100420.52;125708;1099;104159;-77
2021/05/21 10:34:54;;;;;;;5.10;2.77;;;;;;;18.58;67.96;100431.98;125795;1099;104194;-79
2021/05/21 10:37:36;;;;;;;6.00;2.53;;;;;;;18.36;68.34;100424.88;125913;1099;104268;-79
2021/05/21 10:40:28;;;;;;;4.90;2.53;;;;;;;18.11;68.28;100430.11;125727;1099;104214;-79
2021/05/21 10:43:24;;;;;;;4.50;2.40;;;;;;;17.93;69.04;100444.17;125743;1099;104351;-80
2021/05/21 10:46:19;;;;;;;6.90;2.63;;;;;;;17.70;68.79;100433.41;125649;1099;104218;-80
2021/05/21 10:49:02;;;;;;;6.83;2.83;;;;;;;17.50;68.68;100426.23;126317;1099;104201;-78
2021/05/21 10:52:02;;;;;;;5.77;2.40;;;;;;;17.48;68.87;100425.31;125575;1099;102898;-78
2021/05/21 10:54:46;;;;;;;6.17;2.93;;;;;;;17.53;68.70;100430.65;125471;1099;104239;-79
2021/05/21 10:57:22;;;;;;;4.27;2.90;;;;;;;17.52;68.46;100443.04;127007;1098;103104;-78
2021/05/21 10:59:58;;;;;;;7.80;3.80;;;;;;;17.47;68.56;100441.22;125684;1099;104210;-79
2021/05/21 11:02:56;;;;;;;8.60;3.40;;;;;;;17.40;68.29;100440.30;125673;1099;104271;-78
2021/05/21 11:05:40;;;;;;;7.13;2.97;;;;;;;17.29;68.13;100452.61;125668;1099;104162;-79
2021/05/21 11:08:16;;;;;;;7.37;3.30;;;;;;;17.13;68.02;100447.19;125859;1099;104194;-79
2021/05/21 11:10:53;;;;;;;9.87;3.80;;;;;;;17.03;68.53;100458.57;125788;1099;103211;-79
2021/05/21 11:13:27;;;;;;;5.57;2.50;;;;;;;16.94;67.86;100461.14;125064;1102;104293;-77
2021/05/21 11:16:03;;;;;;;7.00;2.60;;;;;;;16.83;68.27;100438.06;125026;1102;104204;-80
2021/05/21 11:18:35;;;;;;;3.40;2.40;;;;;;;16.78;68.58;100441.53;125073;1102;104296;-78
2021/05/21 11:21:09;;;;;;;6.50;2.60;;;;;;;16.81;68.06;100430.97;125030;1102;104188;-79
2021/05/21 11:23:42;;;;;;;4.47;2.80;;;;;;;16.97;68.60;100413.45;125006;1102;104213;-81
2021/05/21 11:26:30;;;;;;;4.97;2.30;;;;;;;17.17;67.99;100416.27;125004;1102;104650;-80
2021/05/21 11:29:07;;;;;;;10.43;2.80;;;;;;;17.37;68.46;100424.37;124896;1102;104162;-78
2021/05/21 11:31:49;;;;;;;2.97;2.23;;;;;;;17.61;68.38;100423.64;124973;1099;104245;-80
2021/05/21 11:34:24;;;;;;;7.23;2.90;;;;;;;17.87;68.19;100421.13;124987;1099;104486;-78
2021/05/21 11:37:00;;;;;;;6.57;2.60;;;;;;;18.08;67.97;100423.00;124977;1102;104149;-78
2021/05/21 11:39:32;;;;;;;6.33;2.80;;;;;;;18.19;67.68;100427.48;124965;1099;104268;-79
2021/05/21 11:42:28;;;;;;;6.83;3.00;;;;;;;18.22;67.56;100423.05;125353;1099;104265;-80
2021/05/21 11:45:01;;;;;;;6.25;2.90;;;;;;;18.24;67.44;100420.41;125809;1098;104157;-79